createdAt,value
2022-11-28T00:01:21.248Z,34.27
2022-11-28T00:03:52.642Z,37.87
2022-11-28T00:06:22.362Z,28.30
2022-11-28T00:08:50.532Z,27.17
2022-11-28T00:11:19.271Z,72.73
2022-11-28T00:13:47.691Z,50.73
2022-11-28T00:16:18.369Z,86.30
2022-11-28T00:18:46.451Z,35.63
2022-11-28T00:21:15.995Z,40.67
2022-11-28T00:23:46.835Z,32.03
2022-11-28T00:26:16.522Z,36.50
2022-11-28T00:28:44.682Z,34.33
2022-11-28T00:31:14.907Z,32.73
2022-11-28T00:33:43.058Z,35.03
2022-11-28T00:36:11.974Z,37.00
2022-11-28T00:38:39.854Z,36.30
2022-11-28T00:41:11.139Z,32.77
2022-11-28T00:43:39.369Z,34.27
2022-11-28T00:46:07.546Z,34.97
2022-11-28T00:48:35.888Z,34.37
2022-11-28T00:51:08.163Z,36.93
2022-11-28T00:53:36.342Z,35.63
2022-11-28T00:56:05.901Z,38.83
2022-11-28T00:58:36.080Z,34.57
2022-11-28T01:01:09.187Z,37.60
2022-11-28T01:03:37.112Z,40.23
2022-11-28T01:06:05.605Z,38.17
2022-11-28T01:08:33.753Z,36.93
2022-11-28T01:11:01.825Z,38.17
2022-11-28T01:13:29.917Z,41.20
2022-11-28T01:15:59.699Z,37.57
2022-11-28T01:18:27.621Z,35.20
2022-11-28T01:20:55.519Z,33.70
2022-11-28T01:23:23.401Z,32.93
2022-11-28T01:25:51.457Z,33.20
2022-11-28T01:28:19.367Z,34.53
2022-11-28T01:30:47.277Z,32.97
2022-11-28T01:33:16.657Z,30.43
2022-11-28T01:35:54.415Z,29.53
2022-11-28T01:38:22.633Z,31.57
2022-11-28T01:40:51.084Z,29.80
2022-11-28T01:43:19.506Z,29.70
2022-11-28T01:45:47.681Z,31.23
2022-11-28T01:48:21.700Z,28.93
2022-11-28T01:50:51.028Z,31.60
2022-11-28T01:53:19.074Z,27.57
2022-11-28T01:55:53.936Z,29.57
2022-11-28T01:58:22.022Z,32.63
2022-11-28T02:00:50.491Z,35.10
2022-11-28T02:03:24.050Z,37.37
2022-11-28T02:05:52.738Z,39.77
2022-11-28T02:08:20.730Z,37.20
2022-11-28T02:11:04.201Z,30.47
2022-11-28T02:13:44.757Z,30.97
2022-11-28T02:16:38.994Z,30.40
2022-11-28T02:19:34.472Z,31.03
2022-11-28T02:22:07.446Z,31.60
2022-11-28T02:25:13.777Z,30.60
2022-11-28T02:28:07.766Z,29.53
2022-11-28T02:30:48.077Z,34.23
2022-11-28T02:33:21.978Z,32.13
2022-11-28T02:36:00.197Z,31.83
2022-11-28T02:38:40.121Z,29.83
2022-11-28T02:41:16.011Z,31.23
2022-11-28T02:43:52.065Z,30.17
2022-11-28T02:46:27.861Z,31.13
2022-11-28T02:49:01.033Z,32.83
2022-11-28T02:51:34.642Z,29.27
2022-11-28T02:54:04.749Z,31.60
2022-11-28T02:56:32.652Z,30.90
2022-11-28T02:59:00.540Z,31.73
2022-11-28T03:01:32.747Z,33.53
2022-11-28T03:04:13.785Z,34.93
2022-11-28T03:06:50.149Z,32.07
2022-11-28T03:09:36.203Z,32.97
2022-11-28T03:12:13.369Z,33.17
2022-11-28T03:14:50.977Z,34.50
2022-11-28T03:17:34.877Z,35.43
2022-11-28T03:20:16.013Z,33.97
2022-11-28T03:22:56.330Z,37.10
2022-11-28T03:25:29.603Z,38.70
2022-11-28T03:28:03.253Z,35.97
2022-11-28T03:30:37.592Z,33.43
2022-11-28T03:33:06.487Z,34.97
2022-11-28T03:35:40.441Z,34.77
2022-11-28T03:38:12.252Z,34.37
2022-11-28T03:40:43.671Z,32.33
2022-11-28T03:43:17.032Z,34.77
2022-11-28T03:45:48.212Z,32.33
2022-11-28T03:48:21.684Z,33.03
2022-11-28T03:50:56.700Z,30.93
2022-11-28T03:53:36.133Z,36.50
2022-11-28T03:56:10.323Z,36.37
2022-11-28T03:58:44.778Z,36.37
2022-11-28T04:01:20.673Z,38.43
2022-11-28T04:03:55.812Z,37.83
2022-11-28T04:06:29.433Z,37.83
2022-11-28T04:09:02.344Z,35.50
2022-11-28T04:11:34.844Z,33.47
2022-11-28T04:14:10.687Z,31.77
2022-11-28T04:16:47.232Z,33.07
2022-11-28T04:19:29.271Z,30.70
2022-11-28T04:22:02.975Z,31.20
2022-11-28T04:24:38.119Z,30.97
2022-11-28T04:27:09.623Z,33.57
2022-11-28T04:29:43.047Z,31.50
2022-11-28T04:32:12.587Z,35.57
2022-11-28T04:34:43.548Z,37.23
2022-11-28T04:37:15.287Z,37.93
2022-11-28T04:39:45.613Z,36.23
2022-11-28T04:42:18.114Z,37.23
2022-11-28T04:44:51.741Z,37.57
2022-11-28T04:47:20.407Z,34.87
2022-11-28T04:49:48.336Z,36.43
2022-11-28T04:52:21.915Z,35.67
2022-11-28T04:54:56.587Z,34.33
2022-11-28T04:57:31.180Z,34.73
2022-11-28T04:59:59.799Z,32.33
2022-11-28T05:02:29.667Z,29.30
2022-11-28T05:04:58.311Z,30.20
2022-11-28T05:07:27.665Z,30.13
2022-11-28T05:09:57.686Z,30.10
2022-11-28T05:12:25.611Z,29.03
2022-11-28T05:14:53.493Z,29.43
2022-11-28T05:17:21.397Z,27.83
2022-11-28T05:19:49.283Z,30.63
2022-11-28T05:22:17.257Z,28.63
2022-11-28T05:24:46.705Z,28.87
2022-11-28T05:27:14.774Z,26.27
2022-11-28T05:29:49.426Z,25.63
2022-11-28T05:32:19.944Z,24.77
2022-11-28T05:34:47.827Z,24.03
2022-11-28T05:37:16.730Z,24.33
2022-11-28T05:39:46.016Z,23.23
2022-11-28T05:42:13.924Z,21.53
2022-11-28T05:44:41.806Z,21.73
2022-11-28T05:47:09.770Z,21.67
2022-11-28T05:49:37.700Z,21.47
2022-11-28T05:52:05.684Z,20.30
2022-11-28T05:54:33.598Z,22.63
2022-11-28T05:57:02.970Z,24.13
2022-11-28T05:59:30.858Z,22.93
2022-11-28T06:01:58.872Z,20.97
2022-11-28T06:04:26.887Z,20.97
2022-11-28T06:06:54.825Z,20.93
2022-11-28T06:09:25.807Z,21.53
2022-11-28T06:11:54.354Z,22.07
2022-11-28T06:14:23.633Z,20.87
2022-11-28T06:16:51.585Z,20.60
2022-11-28T06:19:19.670Z,20.07
2022-11-28T06:21:50.151Z,20.80
2022-11-28T06:24:18.289Z,20.97
2022-11-28T06:26:46.569Z,20.47
2022-11-28T06:29:14.517Z,20.67
2022-11-28T06:31:43.834Z,19.83
2022-11-28T06:34:12.800Z,20.33
2022-11-28T06:36:40.781Z,21.30
2022-11-28T06:39:08.712Z,19.10
2022-11-28T06:41:36.624Z,22.07
2022-11-28T06:44:04.781Z,22.17
2022-11-28T06:46:32.736Z,20.00
2022-11-28T06:49:02.016Z,20.53
2022-11-28T06:51:29.933Z,18.43
2022-11-28T06:53:58.017Z,18.53
2022-11-28T06:56:26.003Z,18.97
2022-11-28T06:58:58.107Z,18.97
2022-11-28T07:01:27.737Z,18.63
2022-11-28T07:03:55.919Z,20.90
2022-11-28T07:06:26.864Z,18.07
2022-11-28T07:08:56.133Z,18.73
2022-11-28T07:11:25.692Z,19.00
2022-11-28T07:13:54.877Z,18.50
2022-11-28T07:16:24.320Z,17.87
2022-11-28T07:18:52.949Z,17.90
2022-11-28T07:21:21.542Z,19.00
2022-11-28T07:23:51.132Z,18.10
2022-11-28T07:26:23.683Z,16.63
2022-11-28T07:28:52.758Z,17.83
2022-11-28T07:31:22.392Z,17.70
2022-11-28T07:33:52.060Z,18.80
2022-11-28T07:36:22.404Z,16.50
2022-11-28T07:38:53.203Z,16.47
2022-11-28T07:41:26.199Z,15.83
2022-11-28T07:43:56.297Z,16.30
2022-11-28T07:46:24.548Z,16.93
2022-11-28T07:48:53.087Z,16.97
2022-11-28T07:51:22.829Z,16.97
2022-11-28T07:53:52.608Z,16.47
2022-11-28T07:56:25.616Z,15.93
2022-11-28T07:58:53.735Z,15.70
2022-11-28T08:01:23.392Z,16.63
2022-11-28T08:03:52.069Z,16.37
2022-11-28T08:06:22.491Z,15.57
2022-11-28T08:08:52.691Z,16.07
2022-11-28T08:11:22.679Z,16.03
2022-11-28T08:13:51.859Z,15.73
2022-11-28T08:16:23.543Z,16.70
2022-11-28T08:18:53.060Z,15.40
2022-11-28T08:21:23.363Z,17.10
2022-11-28T08:23:53.552Z,15.63
2022-11-28T08:26:28.792Z,15.73
2022-11-28T08:28:58.750Z,15.47
2022-11-28T08:31:29.917Z,16.10
2022-11-28T08:33:59.797Z,15.70
2022-11-28T08:36:29.351Z,17.13
2022-11-28T08:39:30.366Z,17.60
2022-11-28T08:41:48.417Z,17.20
2022-11-28T08:44:16.436Z,16.53
2022-11-28T08:46:44.356Z,17.33
2022-11-28T08:49:12.258Z,15.93
2022-11-28T08:51:40.136Z,16.83
2022-11-28T08:54:09.556Z,16.50
2022-11-28T08:56:37.440Z,16.07
2022-11-28T08:59:07.098Z,14.97
2022-11-28T09:01:35.061Z,16.73
2022-11-28T09:04:03.114Z,15.87
2022-11-28T09:06:31.062Z,16.23
2022-11-28T09:08:59.315Z,18.07
2022-11-28T09:11:28.549Z,17.67
2022-11-28T09:13:56.764Z,17.23
2022-11-28T09:16:24.686Z,18.33
2022-11-28T09:18:52.715Z,18.77
2022-11-28T09:21:20.655Z,19.80
2022-11-28T09:23:48.563Z,18.27
2022-11-28T09:26:18.106Z,19.87
2022-11-28T09:28:48.426Z,20.30
2022-11-28T09:31:18.609Z,21.33
2022-11-28T09:33:48.308Z,21.53
2022-11-28T09:36:18.759Z,20.57
2022-11-28T09:38:46.997Z,21.23
2022-11-28T09:41:45.730Z,22.97
2022-11-28T09:44:22.927Z,21.67
2022-11-28T09:46:53.721Z,24.17
2022-11-28T09:49:36.771Z,22.23
2022-11-28T09:52:22.441Z,23.27
2022-11-28T09:54:57.917Z,23.00
2022-11-28T09:57:33.879Z,23.07
2022-11-28T10:00:03.788Z,23.47
2022-11-28T10:02:39.244Z,23.83
2022-11-28T10:05:16.101Z,24.20
2022-11-28T10:07:55.283Z,24.40
2022-11-28T10:10:30.123Z,24.30
2022-11-28T10:13:04.333Z,24.67
2022-11-28T10:15:43.820Z,24.67
2022-11-28T10:18:27.883Z,25.70
2022-11-28T10:21:00.235Z,24.43
2022-11-28T10:23:30.851Z,24.10
2022-11-28T10:26:02.703Z,24.30
2022-11-28T10:28:35.232Z,24.03
2022-11-28T10:31:09.051Z,24.93
2022-11-28T10:33:43.230Z,24.17
2022-11-28T10:36:17.476Z,22.67
2022-11-28T10:38:45.368Z,21.97
2022-11-28T10:41:18.314Z,21.77
2022-11-28T10:43:50.495Z,21.00
2022-11-28T10:46:40.811Z,21.40
2022-11-28T10:49:25.536Z,21.30
2022-11-28T10:52:02.573Z,21.13
2022-11-28T10:54:46.645Z,20.20
2022-11-28T10:57:22.168Z,20.60
2022-11-28T11:00:02.603Z,19.87
2022-11-28T11:02:38.294Z,20.07
2022-11-28T11:05:08.000Z,20.43
2022-11-28T11:07:36.018Z,20.40
2022-11-28T11:10:15.515Z,21.90
2022-11-28T11:12:44.145Z,19.83
2022-11-28T11:15:25.542Z,19.33
2022-11-28T11:17:54.798Z,17.87
2022-11-28T11:20:38.003Z,19.13
2022-11-28T11:23:16.464Z,19.67
2022-11-28T11:25:50.941Z,19.43
2022-11-28T11:28:42.624Z,17.87
2022-11-28T11:31:26.227Z,18.63
2022-11-28T11:34:15.865Z,17.40
2022-11-28T11:36:43.890Z,17.40
2022-11-28T11:39:23.680Z,15.77
2022-11-28T11:42:10.206Z,15.33
2022-11-28T11:44:38.430Z,15.53
2022-11-28T11:47:07.934Z,16.60
2022-11-28T11:49:39.029Z,16.80
2022-11-28T11:52:15.039Z,17.60
2022-11-28T11:54:56.334Z,15.60
2022-11-28T11:57:34.745Z,15.20
2022-11-28T12:00:07.992Z,15.47
2022-11-28T12:02:40.935Z,13.93
2022-11-28T12:05:14.955Z,14.17
2022-11-28T12:07:51.224Z,13.60
2022-11-28T12:10:23.347Z,14.17
2022-11-28T12:12:51.597Z,13.67
2022-11-28T12:15:26.931Z,14.20
2022-11-28T12:18:14.133Z,14.10
2022-11-28T12:20:55.529Z,13.20
2022-11-28T12:23:59.239Z,13.40
2022-11-28T12:26:34.733Z,14.07
2022-11-28T12:31:54.654Z,14.00
2022-11-28T12:34:33.531Z,13.70
2022-11-28T12:37:10.870Z,12.67
2022-11-28T12:39:50.198Z,14.17
2022-11-28T12:42:30.514Z,14.03
2022-11-28T12:45:20.693Z,12.63
2022-11-28T12:47:56.461Z,13.10
2022-11-28T12:50:33.029Z,14.17
2022-11-28T12:53:22.564Z,14.60
2022-11-28T12:55:59.934Z,13.70
2022-11-28T12:58:31.799Z,13.87
2022-11-28T13:01:08.242Z,14.33
2022-11-28T13:03:43.675Z,15.27
2022-11-28T13:06:23.809Z,14.13
2022-11-28T13:09:09.797Z,13.17
2022-11-28T13:11:48.261Z,12.93
2022-11-28T13:14:25.313Z,12.47
2022-11-28T13:16:57.605Z,13.00
2022-11-28T13:19:39.054Z,12.97
2022-11-28T13:22:15.102Z,12.43
2022-11-28T13:24:54.001Z,13.27
2022-11-28T13:27:32.556Z,13.43
2022-11-28T13:30:13.277Z,12.47
2022-11-28T13:32:46.541Z,12.90
2022-11-28T13:35:16.470Z,12.57
2022-11-28T13:40:44.835Z,13.63
2022-11-28T13:43:18.122Z,13.87
2022-11-28T13:51:41.620Z,12.60
2022-11-28T13:54:37.188Z,12.50
2022-11-28T13:57:18.994Z,12.67
2022-11-28T13:59:53.488Z,12.33
2022-11-28T14:02:27.322Z,12.17
2022-11-28T14:04:55.420Z,12.50
2022-11-28T14:07:32.895Z,14.20
2022-11-28T14:10:15.577Z,12.63
2022-11-28T14:12:53.480Z,13.07
2022-11-28T14:15:29.600Z,12.43
2022-11-28T14:18:39.104Z,14.40
2022-11-28T14:21:05.555Z,14.40
2022-11-28T14:23:42.003Z,15.23
2022-11-28T14:26:15.601Z,14.43
2022-11-28T14:28:46.261Z,14.43
2022-11-28T14:31:26.348Z,14.57
2022-11-28T14:33:59.373Z,15.13
2022-11-28T14:36:29.681Z,15.13
2022-11-28T14:39:12.118Z,13.90
2022-11-28T14:42:51.813Z,14.10
2022-11-28T14:45:41.848Z,14.10
2022-11-28T14:48:29.318Z,14.80
2022-11-28T14:51:01.818Z,15.17
2022-11-28T14:53:45.399Z,15.77
2022-11-28T14:56:26.660Z,15.47
2022-11-28T14:58:58.933Z,15.07
2022-11-28T15:01:44.888Z,15.53
2022-11-28T15:04:37.406Z,15.10
2022-11-28T15:07:12.000Z,15.30
2022-11-28T15:09:46.748Z,16.00
2022-11-28T15:12:24.516Z,16.93
2022-11-28T15:14:58.974Z,17.70
2022-11-28T15:17:30.859Z,17.97
2022-11-28T15:20:00.220Z,19.00
2022-11-28T15:22:33.188Z,17.90
2022-11-28T15:25:01.122Z,18.53
2022-11-28T15:27:29.343Z,16.80
2022-11-28T15:29:59.137Z,15.53
2022-11-28T15:32:30.871Z,16.90
2022-11-28T15:35:01.712Z,15.63
2022-11-28T15:37:31.947Z,16.60
2022-11-28T15:40:01.721Z,15.93
2022-11-28T15:42:31.704Z,16.00
2022-11-28T15:45:01.300Z,16.17
2022-11-28T15:47:31.028Z,16.43
2022-11-28T15:50:05.513Z,15.50
2022-11-28T15:52:33.537Z,16.03
2022-11-28T15:55:01.674Z,15.90
2022-11-28T15:57:32.530Z,15.77
2022-11-28T16:00:02.986Z,16.03
2022-11-28T16:02:35.613Z,15.60
2022-11-28T16:05:08.812Z,17.10
2022-11-28T16:07:40.973Z,16.93
2022-11-28T16:10:22.061Z,16.57
2022-11-28T16:12:50.585Z,16.23
2022-11-28T16:15:20.069Z,15.97
2022-11-28T16:17:49.810Z,16.23
2022-11-28T16:20:24.023Z,17.03
2022-11-28T16:22:57.182Z,17.03
2022-11-28T16:25:26.810Z,18.07
2022-11-28T16:27:57.371Z,17.23
2022-11-28T16:30:34.659Z,16.53
2022-11-28T16:33:25.097Z,17.20
2022-11-28T16:35:53.125Z,17.30
2022-11-28T16:38:24.289Z,17.93
2022-11-28T16:40:53.079Z,18.40
2022-11-28T16:43:25.097Z,19.20
2022-11-28T16:46:00.043Z,16.80
2022-11-28T16:48:31.941Z,17.80
2022-11-28T16:51:32.636Z,17.53
2022-11-28T16:54:01.683Z,16.97
2022-11-28T16:56:44.923Z,18.33
2022-11-28T16:59:14.790Z,18.30
2022-11-28T17:01:43.998Z,18.27
2022-11-28T17:04:22.414Z,18.93
2022-11-28T17:06:50.946Z,18.43
2022-11-28T17:09:19.123Z,18.80
2022-11-28T17:11:51.729Z,18.73
2022-11-28T17:14:19.622Z,19.97
2022-11-28T17:16:47.599Z,19.50
2022-11-28T17:19:15.631Z,17.47
2022-11-28T17:21:47.835Z,18.50
2022-11-28T17:24:19.038Z,18.60
2022-11-28T17:26:47.255Z,18.20
2022-11-28T17:29:17.020Z,19.33
2022-11-28T17:31:46.823Z,17.53
2022-11-28T17:34:16.945Z,19.63
2022-11-28T17:36:46.477Z,18.80
2022-11-28T17:39:14.737Z,18.77
2022-11-28T17:41:43.288Z,20.20
2022-11-28T17:44:17.667Z,19.10
2022-11-28T17:46:45.621Z,19.03
2022-11-28T17:49:14.041Z,19.10
2022-11-28T17:51:42.217Z,20.40
2022-11-28T17:54:16.226Z,20.00
2022-11-28T17:56:44.347Z,19.23
2022-11-28T17:59:13.187Z,20.27
2022-11-28T18:01:41.152Z,21.10
2022-11-28T18:04:09.611Z,21.90
2022-11-28T18:06:37.854Z,20.27
2022-11-28T18:09:11.888Z,21.87
2022-11-28T18:11:41.642Z,20.00
2022-11-28T18:14:09.596Z,18.40
2022-11-28T18:16:39.651Z,21.53
2022-11-28T18:19:07.646Z,19.97
2022-11-28T18:21:35.582Z,21.90
2022-11-28T18:24:04.657Z,22.40
2022-11-28T18:26:32.620Z,23.40
2022-11-28T18:29:01.920Z,22.97
2022-11-28T18:31:30.859Z,21.60
2022-11-28T18:34:03.137Z,21.03
2022-11-28T18:36:33.463Z,21.13
2022-11-28T18:39:03.991Z,22.17
2022-11-28T18:41:32.486Z,20.13
2022-11-28T18:44:03.425Z,20.70
2022-11-28T18:46:32.360Z,20.63
2022-11-28T18:49:00.364Z,19.43
2022-11-28T18:51:30.129Z,21.03
2022-11-28T18:53:58.633Z,19.10
2022-11-28T18:56:29.321Z,20.10
2022-11-28T18:58:58.536Z,19.83
2022-11-28T19:01:30.435Z,18.73
2022-11-28T19:04:00.800Z,20.33
2022-11-28T19:06:29.384Z,20.93
2022-11-28T19:08:59.535Z,18.50
2022-11-28T19:11:28.621Z,19.33
2022-11-28T19:13:57.032Z,20.27
2022-11-28T19:16:27.957Z,20.13
2022-11-28T19:18:56.298Z,19.77
2022-11-28T19:21:25.655Z,18.43
2022-11-28T19:23:55.063Z,17.17
2022-11-28T19:26:24.607Z,18.87
2022-11-28T19:28:53.015Z,18.57
2022-11-28T19:31:22.886Z,17.37
2022-11-28T19:34:01.176Z,17.37
2022-11-28T19:36:29.951Z,16.57
2022-11-28T19:38:58.406Z,18.57
2022-11-28T19:41:26.595Z,18.67
2022-11-28T19:43:54.500Z,20.10
2022-11-28T19:46:22.415Z,17.73
2022-11-28T19:48:51.701Z,18.17
2022-11-28T19:51:21.219Z,17.43
2022-11-28T19:53:49.163Z,17.67
2022-11-28T19:56:19.253Z,19.13
2022-11-28T19:58:47.580Z,17.50
2022-11-28T20:01:17.504Z,17.53
2022-11-28T20:03:47.620Z,17.67
2022-11-28T20:06:18.115Z,18.67
2022-11-28T20:08:47.899Z,18.47
2022-11-28T20:11:17.560Z,17.80
2022-11-28T20:13:46.503Z,16.43
2022-11-28T20:16:16.573Z,19.00
2022-11-28T20:18:45.351Z,18.23
2022-11-28T20:21:15.494Z,19.43
2022-11-28T20:23:45.146Z,18.57
2022-11-28T20:26:15.770Z,17.87
2022-11-28T20:28:44.659Z,17.30
2022-11-28T20:31:19.712Z,18.23
2022-11-28T20:33:48.450Z,18.00
2022-11-28T20:36:18.221Z,17.90
2022-11-28T20:38:46.482Z,18.13
2022-11-28T20:41:17.130Z,19.37
2022-11-28T20:43:45.463Z,19.43
2022-11-28T20:46:15.728Z,18.60
2022-11-28T20:48:43.830Z,16.77
2022-11-28T20:51:13.742Z,17.80
2022-11-28T20:53:41.982Z,17.17
2022-11-28T20:56:13.444Z,17.83
2022-11-28T20:58:43.242Z,18.07
2022-11-28T21:01:15.322Z,19.47
2022-11-28T21:03:43.558Z,18.97
2022-11-28T21:06:11.767Z,19.83
2022-11-28T21:08:40.418Z,17.67
2022-11-28T21:11:09.946Z,17.80
2022-11-28T21:13:37.878Z,18.30
2022-11-28T21:16:08.750Z,18.93
2022-11-28T21:18:37.977Z,18.63
2022-11-28T21:21:08.973Z,17.33
2022-11-28T21:23:37.226Z,16.93
2022-11-28T21:26:07.006Z,17.57
2022-11-28T21:28:37.117Z,17.77
2022-11-28T21:31:08.233Z,22.60
2022-11-28T21:33:36.386Z,17.73
2022-11-28T21:36:05.905Z,17.20
2022-11-28T21:38:34.321Z,21.63
2022-11-28T21:41:02.664Z,17.60
2022-11-28T21:43:30.697Z,17.03
2022-11-28T21:46:03.143Z,19.27
2022-11-28T21:48:33.673Z,19.27
2022-11-28T21:51:02.530Z,17.03
2022-11-28T21:53:30.973Z,17.60
2022-11-28T21:56:01.197Z,17.93
2022-11-28T21:58:30.661Z,19.63
2022-11-28T22:00:59.500Z,18.70
2022-11-28T22:03:28.365Z,19.53
2022-11-28T22:06:02.652Z,17.40
2022-11-28T22:08:31.205Z,15.90
2022-11-28T22:11:01.099Z,16.67
2022-11-28T22:13:29.367Z,17.53
2022-11-28T22:15:57.334Z,16.00
2022-11-28T22:18:25.368Z,16.53
2022-11-28T22:20:53.371Z,16.20
2022-11-28T22:23:22.616Z,17.13
2022-11-28T22:25:53.617Z,17.17
2022-11-28T22:28:21.816Z,17.30
2022-11-28T22:30:49.740Z,16.73
2022-11-28T22:33:18.468Z,16.93
2022-11-28T22:35:46.528Z,17.43
2022-11-28T22:38:14.720Z,15.60
2022-11-28T22:40:44.007Z,16.33
2022-11-28T22:43:12.308Z,16.70
2022-11-28T22:45:40.275Z,15.57
2022-11-28T22:48:08.301Z,17.50
2022-11-28T22:50:40.238Z,17.23
2022-11-28T22:53:08.285Z,17.13
2022-11-28T22:55:36.493Z,17.10
2022-11-28T22:58:05.824Z,17.00
2022-11-28T23:00:33.735Z,18.53
2022-11-28T23:03:01.838Z,17.57
2022-11-28T23:05:29.841Z,17.10
2022-11-28T23:07:57.824Z,16.80
2022-11-28T23:10:25.798Z,17.60
2022-11-28T23:12:53.862Z,16.07
2022-11-28T23:15:23.296Z,17.17
2022-11-28T23:17:51.302Z,17.27
2022-11-28T23:20:19.315Z,16.87
2022-11-28T23:22:47.246Z,16.40
2022-11-28T23:25:15.369Z,16.70
2022-11-28T23:27:43.304Z,17.97
2022-11-28T23:30:11.819Z,16.87
2022-11-28T23:32:41.071Z,16.83
2022-11-28T23:35:09.582Z,17.10
2022-11-28T23:37:39.407Z,15.67
2022-11-28T23:40:08.649Z,16.17
2022-11-28T23:42:36.562Z,17.00
2022-11-28T23:45:04.959Z,16.93
2022-11-28T23:47:32.838Z,15.30
2022-11-28T23:50:02.062Z,16.23
2022-11-28T23:52:29.940Z,15.73
2022-11-28T23:54:57.818Z,16.07
2022-11-28T23:57:25.703Z,17.70
2022-11-28T23:59:53.587Z,17.47
